sensor_id;sensor_type;location;lat;lon;timestamp;temperature;humidity
46085;DHT22;31823;47.032;8.310;2023-07-30T00:01:24;16.20;99.90
46085;DHT22;31823;47.032;8.310;2023-07-30T00:03:50;16.20;99.90
46085;DHT22;31823;47.032;8.310;2023-07-30T00:06:15;16.20;99.90
46085;DHT22;31823;47.032;8.310;2023-07-30T00:08:41;16.20;99.90
46085;DHT22;31823;47.032;8.310;2023-07-30T00:11:06;16.20;99.90
46085;DHT22;31823;47.032;8.310;2023-07-30T00:13:32;16.20;99.90
46085;DHT22;31823;47.032;8.310;2023-07-30T00:16:00;16.30;99.90
46085;DHT22;31823;47.032;8.310;2023-07-30T00:18:26;16.30;99.90
46085;DHT22;31823;47.032;8.310;2023-07-30T00:20:51;16.20;99.90
46085;DHT22;31823;47.032;8.310;2023-07-30T00:23:17;16.20;99.90
46085;DHT22;31823;47.032;8.310;2023-07-30T00:25:42;16.20;99.90
46085;DHT22;31823;47.032;8.310;2023-07-30T00:28:08;16.20;99.90
46085;DHT22;31823;47.032;8.310;2023-07-30T00:30:33;16.20;99.90
46085;DHT22;31823;47.032;8.310;2023-07-30T00:32:59;16.20;99.90
46085;DHT22;31823;47.032;8.310;2023-07-30T00:35:24;16.30;99.90
46085;DHT22;31823;47.032;8.310;2023-07-30T00:37:50;16.30;99.90
46085;DHT22;31823;47.032;8.310;2023-07-30T00:40:17;16.20;99.90
46085;DHT22;31823;47.032;8.310;2023-07-30T00:43:01;16.30;99.90
46085;DHT22;31823;47.032;8.310;2023-07-30T00:45:27;16.30;99.90
46085;DHT22;31823;47.032;8.310;2023-07-30T00:47:52;16.20;99.90
46085;DHT22;31823;47.032;8.310;2023-07-30T00:50:18;16.30;99.90
46085;DHT22;31823;47.032;8.310;2023-07-30T00:52:44;16.30;99.90
46085;DHT22;31823;47.032;8.310;2023-07-30T00:55:10;16.30;99.90
46085;DHT22;31823;47.032;8.310;2023-07-30T00:57:37;16.30;99.90
46085;DHT22;31823;47.032;8.310;2023-07-30T01:00:03;16.40;99.90
46085;DHT22;31823;47.032;8.310;2023-07-30T01:02:37;16.40;99.90
46085;DHT22;31823;47.032;8.310;2023-07-30T01:05:03;16.40;99.90
46085;DHT22;31823;47.032;8.310;2023-07-30T01:07:31;16.40;99.90
46085;DHT22;31823;47.032;8.310;2023-07-30T01:09:58;16.40;99.90
46085;DHT22;31823;47.032;8.310;2023-07-30T01:12:24;16.40;99.90
46085;DHT22;31823;47.032;8.310;2023-07-30T01:14:50;16.40;99.90
46085;DHT22;31823;47.032;8.310;2023-07-30T01:17:16;16.40;99.90
46085;DHT22;31823;47.032;8.310;2023-07-30T01:19:41;16.40;99.90
46085;DHT22;31823;47.032;8.310;2023-07-30T01:22:07;16.30;99.90
46085;DHT22;31823;47.032;8.310;2023-07-30T01:24:33;16.40;99.90
46085;DHT22;31823;47.032;8.310;2023-07-30T01:27:25;16.40;99.90
46085;DHT22;31823;47.032;8.310;2023-07-30T01:29:58;16.40;99.90
46085;DHT22;31823;47.032;8.310;2023-07-30T01:32:27;16.40;99.90
46085;DHT22;31823;47.032;8.310;2023-07-30T01:34:56;16.30;99.90
46085;DHT22;31823;47.032;8.310;2023-07-30T01:37:22;16.30;99.90
46085;DHT22;31823;47.032;8.310;2023-07-30T01:39:49;16.40;99.90
46085;DHT22;31823;47.032;8.310;2023-07-30T01:42:15;16.40;99.90
46085;DHT22;31823;47.032;8.310;2023-07-30T01:44:41;16.40;99.90
46085;DHT22;31823;47.032;8.310;2023-07-30T01:47:07;16.40;99.90
46085;DHT22;31823;47.032;8.310;2023-07-30T01:49:32;16.50;99.90
46085;DHT22;31823;47.032;8.310;2023-07-30T01:51:58;16.40;99.90
46085;DHT22;31823;47.032;8.310;2023-07-30T01:54:24;16.40;99.90
46085;DHT22;31823;47.032;8.310;2023-07-30T01:56:50;16.40;99.90
46085;DHT22;31823;47.032;8.310;2023-07-30T01:59:15;16.30;99.90
46085;DHT22;31823;47.032;8.310;2023-07-30T02:01:41;16.40;99.90
46085;DHT22;31823;47.032;8.310;2023-07-30T02:04:07;16.40;99.90
46085;DHT22;31823;47.032;8.310;2023-07-30T02:06:32;16.30;99.90
46085;DHT22;31823;47.032;8.310;2023-07-30T02:08:58;16.30;99.90
46085;DHT22;31823;47.032;8.310;2023-07-30T02:11:23;16.30;99.90
46085;DHT22;31823;47.032;8.310;2023-07-30T02:13:49;16.30;99.90
46085;DHT22;31823;47.032;8.310;2023-07-30T02:16:15;16.30;99.90
46085;DHT22;31823;47.032;8.310;2023-07-30T02:18:40;16.30;99.90
46085;DHT22;31823;47.032;8.310;2023-07-30T02:21:06;16.30;99.90
46085;DHT22;31823;47.032;8.310;2023-07-30T02:23:31;16.30;99.90
46085;DHT22;31823;47.032;8.310;2023-07-30T02:25:57;16.30;99.90
46085;DHT22;31823;47.032;8.310;2023-07-30T02:28:22;16.40;99.90
46085;DHT22;31823;47.032;8.310;2023-07-30T02:30:48;16.40;99.90
46085;DHT22;31823;47.032;8.310;2023-07-30T02:33:13;16.40;99.90
46085;DHT22;31823;47.032;8.310;2023-07-30T02:35:39;16.40;99.90
46085;DHT22;31823;47.032;8.310;2023-07-30T02:38:04;16.50;99.90
46085;DHT22;31823;47.032;8.310;2023-07-30T02:40:31;16.40;99.90
46085;DHT22;31823;47.032;8.310;2023-07-30T02:42:56;16.40;99.90
46085;DHT22;31823;47.032;8.310;2023-07-30T02:45:22;16.40;99.90
46085;DHT22;31823;47.032;8.310;2023-07-30T02:47:47;16.30;99.90
46085;DHT22;31823;47.032;8.310;2023-07-30T02:50:13;16.30;99.90
46085;DHT22;31823;47.032;8.310;2023-07-30T02:52:39;16.30;99.90
46085;DHT22;31823;47.032;8.310;2023-07-30T02:55:04;16.30;99.90
46085;DHT22;31823;47.032;8.310;2023-07-30T02:57:30;16.30;99.90
46085;DHT22;31823;47.032;8.310;2023-07-30T02:59:56;16.30;99.90
46085;DHT22;31823;47.032;8.310;2023-07-30T03:02:22;16.30;99.90
46085;DHT22;31823;47.032;8.310;2023-07-30T03:04:48;16.30;99.90
46085;DHT22;31823;47.032;8.310;2023-07-30T03:07:13;16.40;99.90
46085;DHT22;31823;47.032;8.310;2023-07-30T03:09:39;16.40;99.90
46085;DHT22;31823;47.032;8.310;2023-07-30T03:12:05;16.40;99.90
46085;DHT22;31823;47.032;8.310;2023-07-30T03:14:30;16.40;99.90
46085;DHT22;31823;47.032;8.310;2023-07-30T03:16:56;16.40;99.90
46085;DHT22;31823;47.032;8.310;2023-07-30T03:19:21;16.40;99.90
46085;DHT22;31823;47.032;8.310;2023-07-30T03:21:47;16.40;99.90
46085;DHT22;31823;47.032;8.310;2023-07-30T03:24:12;16.30;99.90
46085;DHT22;31823;47.032;8.310;2023-07-30T03:26:38;16.50;99.90
46085;DHT22;31823;47.032;8.310;2023-07-30T03:29:03;16.40;99.90
46085;DHT22;31823;47.032;8.310;2023-07-30T03:31:29;16.30;99.90
46085;DHT22;31823;47.032;8.310;2023-07-30T03:33:54;16.30;99.90
46085;DHT22;31823;47.032;8.310;2023-07-30T03:36:20;16.40;99.90
46085;DHT22;31823;47.032;8.310;2023-07-30T03:38:46;16.40;99.90
46085;DHT22;31823;47.032;8.310;2023-07-30T03:41:11;16.40;99.90
46085;DHT22;31823;47.032;8.310;2023-07-30T03:43:37;16.50;99.90
46085;DHT22;31823;47.032;8.310;2023-07-30T03:46:02;16.50;99.90
46085;DHT22;31823;47.032;8.310;2023-07-30T03:48:28;16.60;99.90
46085;DHT22;31823;47.032;8.310;2023-07-30T03:50:54;16.50;99.90
46085;DHT22;31823;47.032;8.310;2023-07-30T03:53:20;16.40;99.90
46085;DHT22;31823;47.032;8.310;2023-07-30T03:55:46;16.40;99.90
46085;DHT22;31823;47.032;8.310;2023-07-30T03:58:11;16.50;99.90
46085;DHT22;31823;47.032;8.310;2023-07-30T04:00:37;16.50;99.90
46085;DHT22;31823;47.032;8.310;2023-07-30T04:03:03;16.50;99.90
46085;DHT22;31823;47.032;8.310;2023-07-30T04:05:29;16.50;99.90
46085;DHT22;31823;47.032;8.310;2023-07-30T04:07:55;16.40;99.90
46085;DHT22;31823;47.032;8.310;2023-07-30T04:10:20;16.40;99.90
46085;DHT22;31823;47.032;8.310;2023-07-30T04:12:46;16.40;99.90
46085;DHT22;31823;47.032;8.310;2023-07-30T04:15:11;16.40;99.90
46085;DHT22;31823;47.032;8.310;2023-07-30T04:17:37;16.30;99.90
46085;DHT22;31823;47.032;8.310;2023-07-30T04:20:03;16.30;99.90
46085;DHT22;31823;47.032;8.310;2023-07-30T04:22:30;16.30;99.90
46085;DHT22;31823;47.032;8.310;2023-07-30T04:24:55;16.20;99.90
46085;DHT22;31823;47.032;8.310;2023-07-30T04:27:21;16.30;99.90
46085;DHT22;31823;47.032;8.310;2023-07-30T04:29:46;16.40;99.90
46085;DHT22;31823;47.032;8.310;2023-07-30T04:32:12;16.40;99.90
46085;DHT22;31823;47.032;8.310;2023-07-30T04:34:38;16.40;99.90
46085;DHT22;31823;47.032;8.310;2023-07-30T04:37:04;16.30;99.90
46085;DHT22;31823;47.032;8.310;2023-07-30T04:39:32;16.30;99.90
46085;DHT22;31823;47.032;8.310;2023-07-30T04:41:57;16.30;99.90
46085;DHT22;31823;47.032;8.310;2023-07-30T04:44:23;16.30;99.90
46085;DHT22;31823;47.032;8.310;2023-07-30T04:46:48;16.40;99.90
46085;DHT22;31823;47.032;8.310;2023-07-30T04:49:14;16.40;99.90
46085;DHT22;31823;47.032;8.310;2023-07-30T04:51:39;16.40;99.90
46085;DHT22;31823;47.032;8.310;2023-07-30T04:54:05;16.40;99.90
46085;DHT22;31823;47.032;8.310;2023-07-30T04:56:30;16.40;99.90
46085;DHT22;31823;47.032;8.310;2023-07-30T04:58:56;16.50;99.90
46085;DHT22;31823;47.032;8.310;2023-07-30T05:01:23;16.60;99.90
46085;DHT22;31823;47.032;8.310;2023-07-30T05:03:49;16.60;99.90
46085;DHT22;31823;47.032;8.310;2023-07-30T05:06:14;16.60;99.90
46085;DHT22;31823;47.032;8.310;2023-07-30T05:08:40;16.60;99.90
46085;DHT22;31823;47.032;8.310;2023-07-30T05:11:05;16.60;99.90
46085;DHT22;31823;47.032;8.310;2023-07-30T05:13:31;16.60;99.90
46085;DHT22;31823;47.032;8.310;2023-07-30T05:15:56;16.70;99.90
46085;DHT22;31823;47.032;8.310;2023-07-30T05:18:22;16.80;99.90
46085;DHT22;31823;47.032;8.310;2023-07-30T05:20:48;16.90;99.90
46085;DHT22;31823;47.032;8.310;2023-07-30T05:23:14;16.90;99.90
46085;DHT22;31823;47.032;8.310;2023-07-30T05:25:40;16.90;99.90
46085;DHT22;31823;47.032;8.310;2023-07-30T05:28:05;16.90;99.90
46085;DHT22;31823;47.032;8.310;2023-07-30T05:30:31;16.90;99.90
46085;DHT22;31823;47.032;8.310;2023-07-30T05:32:56;16.80;99.90
46085;DHT22;31823;47.032;8.310;2023-07-30T05:35:22;16.90;99.90
46085;DHT22;31823;47.032;8.310;2023-07-30T05:37:47;16.90;99.90
46085;DHT22;31823;47.032;8.310;2023-07-30T05:40:13;16.90;99.90
46085;DHT22;31823;47.032;8.310;2023-07-30T05:42:38;17.00;99.90
46085;DHT22;31823;47.032;8.310;2023-07-30T05:45:04;17.20;99.90
46085;DHT22;31823;47.032;8.310;2023-07-30T05:47:30;17.20;99.90
46085;DHT22;31823;47.032;8.310;2023-07-30T05:49:55;17.30;99.90
46085;DHT22;31823;47.032;8.310;2023-07-30T05:52:21;17.20;99.90
46085;DHT22;31823;47.032;8.310;2023-07-30T05:54:46;17.20;99.90
46085;DHT22;31823;47.032;8.310;2023-07-30T05:57:12;17.20;99.90
46085;DHT22;31823;47.032;8.310;2023-07-30T05:59:38;17.30;99.90
46085;DHT22;31823;47.032;8.310;2023-07-30T06:02:03;17.30;99.90
46085;DHT22;31823;47.032;8.310;2023-07-30T06:04:30;17.40;99.90
46085;DHT22;31823;47.032;8.310;2023-07-30T06:06:55;17.40;99.90
46085;DHT22;31823;47.032;8.310;2023-07-30T06:09:21;17.40;99.90
46085;DHT22;31823;47.032;8.310;2023-07-30T06:11:46;17.40;99.90
46085;DHT22;31823;47.032;8.310;2023-07-30T06:14:12;17.50;99.90
46085;DHT22;31823;47.032;8.310;2023-07-30T06:16:37;17.50;99.90
46085;DHT22;31823;47.032;8.310;2023-07-30T06:19:03;17.60;99.90
46085;DHT22;31823;47.032;8.310;2023-07-30T06:21:28;17.70;99.90
46085;DHT22;31823;47.032;8.310;2023-07-30T06:23:54;17.70;99.90
46085;DHT22;31823;47.032;8.310;2023-07-30T06:26:20;17.60;99.90
46085;DHT22;31823;47.032;8.310;2023-07-30T06:28:45;17.70;99.90
46085;DHT22;31823;47.032;8.310;2023-07-30T06:31:11;17.80;99.90
46085;DHT22;31823;47.032;8.310;2023-07-30T06:33:36;17.80;99.90
46085;DHT22;31823;47.032;8.310;2023-07-30T06:36:03;17.80;99.90
46085;DHT22;31823;47.032;8.310;2023-07-30T06:38:29;17.90;99.90
46085;DHT22;31823;47.032;8.310;2023-07-30T06:40:54;17.90;99.90
46085;DHT22;31823;47.032;8.310;2023-07-30T06:43:23;17.90;99.90
46085;DHT22;31823;47.032;8.310;2023-07-30T06:45:48;18.00;99.90
46085;DHT22;31823;47.032;8.310;2023-07-30T06:48:14;18.00;99.90
46085;DHT22;31823;47.032;8.310;2023-07-30T06:50:41;18.10;99.90
46085;DHT22;31823;47.032;8.310;2023-07-30T06:53:06;18.10;99.90
46085;DHT22;31823;47.032;8.310;2023-07-30T06:55:32;18.20;99.90
46085;DHT22;31823;47.032;8.310;2023-07-30T06:57:58;18.50;99.90
46085;DHT22;31823;47.032;8.310;2023-07-30T07:00:24;19.10;99.90
46085;DHT22;31823;47.032;8.310;2023-07-30T07:02:49;19.00;99.90
46085;DHT22;31823;47.032;8.310;2023-07-30T07:05:15;19.50;99.90
46085;DHT22;31823;47.032;8.310;2023-07-30T07:07:41;19.90;99.90
46085;DHT22;31823;47.032;8.310;2023-07-30T07:10:07;20.20;99.90
46085;DHT22;31823;47.032;8.310;2023-07-30T07:12:32;19.80;99.90
46085;DHT22;31823;47.032;8.310;2023-07-30T07:14:58;19.40;99.90
46085;DHT22;31823;47.032;8.310;2023-07-30T07:17:26;19.10;99.90
46085;DHT22;31823;47.032;8.310;2023-07-30T07:19:52;19.10;99.90
46085;DHT22;31823;47.032;8.310;2023-07-30T07:22:17;19.00;99.90
46085;DHT22;31823;47.032;8.310;2023-07-30T07:24:44;18.80;99.90
46085;DHT22;31823;47.032;8.310;2023-07-30T07:27:09;18.80;99.90
46085;DHT22;31823;47.032;8.310;2023-07-30T07:29:35;18.90;99.90
46085;DHT22;31823;47.032;8.310;2023-07-30T07:32:01;18.80;99.90
46085;DHT22;31823;47.032;8.310;2023-07-30T07:34:26;18.70;99.90
46085;DHT22;31823;47.032;8.310;2023-07-30T07:36:52;18.70;99.90
46085;DHT22;31823;47.032;8.310;2023-07-30T07:39:19;18.80;99.90
46085;DHT22;31823;47.032;8.310;2023-07-30T07:41:44;19.30;99.90
46085;DHT22;31823;47.032;8.310;2023-07-30T07:44:10;19.60;99.90
46085;DHT22;31823;47.032;8.310;2023-07-30T07:46:35;20.00;99.90
46085;DHT22;31823;47.032;8.310;2023-07-30T07:49:01;20.30;99.90
46085;DHT22;31823;47.032;8.310;2023-07-30T07:51:26;20.50;99.90
46085;DHT22;31823;47.032;8.310;2023-07-30T07:53:52;20.70;99.90
46085;DHT22;31823;47.032;8.310;2023-07-30T07:56:17;20.50;99.90
46085;DHT22;31823;47.032;8.310;2023-07-30T07:58:43;20.10;99.90
46085;DHT22;31823;47.032;8.310;2023-07-30T08:01:09;20.50;99.90
46085;DHT22;31823;47.032;8.310;2023-07-30T08:03:34;21.20;99.90
46085;DHT22;31823;47.032;8.310;2023-07-30T08:06:00;21.50;99.90
46085;DHT22;31823;47.032;8.310;2023-07-30T08:08:26;20.90;99.90
46085;DHT22;31823;47.032;8.310;2023-07-30T08:10:52;20.60;99.90
46085;DHT22;31823;47.032;8.310;2023-07-30T08:13:18;20.50;99.90
46085;DHT22;31823;47.032;8.310;2023-07-30T08:15:43;20.30;99.90
46085;DHT22;31823;47.032;8.310;2023-07-30T08:18:09;20.10;99.90
46085;DHT22;31823;47.032;8.310;2023-07-30T08:20:36;19.90;99.90
46085;DHT22;31823;47.032;8.310;2023-07-30T08:23:02;19.80;99.90
46085;DHT22;31823;47.032;8.310;2023-07-30T08:25:27;19.70;99.90
46085;DHT22;31823;47.032;8.310;2023-07-30T08:27:53;19.60;99.90
46085;DHT22;31823;47.032;8.310;2023-07-30T08:30:18;19.60;99.90
46085;DHT22;31823;47.032;8.310;2023-07-30T08:32:44;19.30;99.90
46085;DHT22;31823;47.032;8.310;2023-07-30T08:35:10;19.10;99.90
46085;DHT22;31823;47.032;8.310;2023-07-30T08:37:36;19.20;99.90
46085;DHT22;31823;47.032;8.310;2023-07-30T08:40:02;19.30;99.90
46085;DHT22;31823;47.032;8.310;2023-07-30T08:42:28;19.20;99.90
46085;DHT22;31823;47.032;8.310;2023-07-30T08:44:54;19.20;99.90
46085;DHT22;31823;47.032;8.310;2023-07-30T08:47:19;19.30;99.90
46085;DHT22;31823;47.032;8.310;2023-07-30T08:49:45;19.50;99.90
46085;DHT22;31823;47.032;8.310;2023-07-30T08:52:11;19.50;99.90
46085;DHT22;31823;47.032;8.310;2023-07-30T08:54:38;19.60;99.90
46085;DHT22;31823;47.032;8.310;2023-07-30T08:57:05;19.40;99.90
46085;DHT22;31823;47.032;8.310;2023-07-30T08:59:39;19.30;99.90
46085;DHT22;31823;47.032;8.310;2023-07-30T09:02:11;19.50;99.90
46085;DHT22;31823;47.032;8.310;2023-07-30T09:04:39;19.60;99.90
46085;DHT22;31823;47.032;8.310;2023-07-30T09:07:08;19.30;99.90
46085;DHT22;31823;47.032;8.310;2023-07-30T09:09:35;19.10;99.90
46085;DHT22;31823;47.032;8.310;2023-07-30T09:12:02;19.10;99.90
46085;DHT22;31823;47.032;8.310;2023-07-30T09:14:27;19.00;99.90
46085;DHT22;31823;47.032;8.310;2023-07-30T09:16:57;18.90;99.90
46085;DHT22;31823;47.032;8.310;2023-07-30T09:19:23;18.70;99.90
46085;DHT22;31823;47.032;8.310;2023-07-30T09:21:49;18.80;99.90
46085;DHT22;31823;47.032;8.310;2023-07-30T09:24:21;18.80;99.90
46085;DHT22;31823;47.032;8.310;2023-07-30T09:26:46;19.00;99.90
46085;DHT22;31823;47.032;8.310;2023-07-30T09:29:12;18.90;99.90
46085;DHT22;31823;47.032;8.310;2023-07-30T09:31:49;18.90;99.90
46085;DHT22;31823;47.032;8.310;2023-07-30T09:34:17;18.70;99.90
46085;DHT22;31823;47.032;8.310;2023-07-30T09:36:47;18.70;99.90
46085;DHT22;31823;47.032;8.310;2023-07-30T09:39:23;18.90;99.90
46085;DHT22;31823;47.032;8.310;2023-07-30T09:41:59;18.70;99.90
46085;DHT22;31823;47.032;8.310;2023-07-30T09:44:25;18.60;99.90
46085;DHT22;31823;47.032;8.310;2023-07-30T09:46:51;18.60;99.90
46085;DHT22;31823;47.032;8.310;2023-07-30T09:49:17;18.70;99.90
46085;DHT22;31823;47.032;8.310;2023-07-30T09:51:43;19.30;99.90
46085;DHT22;31823;47.032;8.310;2023-07-30T09:54:11;19.80;99.90
46085;DHT22;31823;47.032;8.310;2023-07-30T09:56:38;20.30;99.90
46085;DHT22;31823;47.032;8.310;2023-07-30T09:59:04;20.90;99.90
46085;DHT22;31823;47.032;8.310;2023-07-30T10:01:31;21.40;99.90
46085;DHT22;31823;47.032;8.310;2023-07-30T10:03:58;21.50;99.90
46085;DHT22;31823;47.032;8.310;2023-07-30T10:06:25;21.10;99.90
46085;DHT22;31823;47.032;8.310;2023-07-30T10:08:53;21.40;99.90
46085;DHT22;31823;47.032;8.310;2023-07-30T10:11:19;21.50;99.90
46085;DHT22;31823;47.032;8.310;2023-07-30T10:13:45;21.40;99.90
46085;DHT22;31823;47.032;8.310;2023-07-30T10:16:11;21.60;99.90
46085;DHT22;31823;47.032;8.310;2023-07-30T10:18:42;21.50;99.90
46085;DHT22;31823;47.032;8.310;2023-07-30T10:21:08;22.00;99.90
46085;DHT22;31823;47.032;8.310;2023-07-30T10:23:35;22.10;99.90
46085;DHT22;31823;47.032;8.310;2023-07-30T10:26:09;22.40;99.90
46085;DHT22;31823;47.032;8.310;2023-07-30T10:28:35;22.50;99.90
46085;DHT22;31823;47.032;8.310;2023-07-30T10:31:05;22.60;99.90
46085;DHT22;31823;47.032;8.310;2023-07-30T10:33:51;22.70;99.90
46085;DHT22;31823;47.032;8.310;2023-07-30T10:36:18;22.90;99.90
46085;DHT22;31823;47.032;8.310;2023-07-30T10:38:44;22.70;99.90
46085;DHT22;31823;47.032;8.310;2023-07-30T10:41:13;22.90;99.90
46085;DHT22;31823;47.032;8.310;2023-07-30T10:46:05;23.20;99.90
46085;DHT22;31823;47.032;8.310;2023-07-30T10:48:41;23.20;99.90
46085;DHT22;31823;47.032;8.310;2023-07-30T10:51:09;23.00;99.90
46085;DHT22;31823;47.032;8.310;2023-07-30T10:53:35;23.70;99.90
46085;DHT22;31823;47.032;8.310;2023-07-30T10:56:05;23.20;99.90
46085;DHT22;31823;47.032;8.310;2023-07-30T10:58:32;22.70;99.90
46085;DHT22;31823;47.032;8.310;2023-07-30T11:00:58;22.60;99.90
46085;DHT22;31823;47.032;8.310;2023-07-30T11:03:25;22.80;99.90
46085;DHT22;31823;47.032;8.310;2023-07-30T11:05:52;23.30;99.90
46085;DHT22;31823;47.032;8.310;2023-07-30T11:08:18;23.70;99.90
46085;DHT22;31823;47.032;8.310;2023-07-30T11:10:45;24.00;99.90
46085;DHT22;31823;47.032;8.310;2023-07-30T11:13:13;24.00;99.90
46085;DHT22;31823;47.032;8.310;2023-07-30T11:15:45;24.00;99.90
46085;DHT22;31823;47.032;8.310;2023-07-30T11:18:12;23.90;99.90
46085;DHT22;31823;47.032;8.310;2023-07-30T11:20:38;24.30;99.80
46085;DHT22;31823;47.032;8.310;2023-07-30T11:23:23;23.90;99.90
46085;DHT22;31823;47.032;8.310;2023-07-30T11:25:51;24.10;99.90
46085;DHT22;31823;47.032;8.310;2023-07-30T11:28:32;23.90;99.90
46085;DHT22;31823;47.032;8.310;2023-07-30T11:33:36;24.30;99.90
46085;DHT22;31823;47.032;8.310;2023-07-30T11:36:03;24.80;98.90
46085;DHT22;31823;47.032;8.310;2023-07-30T11:38:29;25.00;99.40
46085;DHT22;31823;47.032;8.310;2023-07-30T11:40:55;25.20;99.90
46085;DHT22;31823;47.032;8.310;2023-07-30T11:43:22;25.90;99.90
46085;DHT22;31823;47.032;8.310;2023-07-30T11:45:48;26.10;99.90
46085;DHT22;31823;47.032;8.310;2023-07-30T11:48:14;25.20;97.20
46085;DHT22;31823;47.032;8.310;2023-07-30T11:50:47;24.70;98.70
46085;DHT22;31823;47.032;8.310;2023-07-30T11:53:13;24.80;97.80
46085;DHT22;31823;47.032;8.310;2023-07-30T11:55:39;24.90;97.70
46085;DHT22;31823;47.032;8.310;2023-07-30T11:58:06;25.60;99.20
46085;DHT22;31823;47.032;8.310;2023-07-30T12:00:32;25.60;99.90
46085;DHT22;31823;47.032;8.310;2023-07-30T12:03:06;25.70;98.80
46085;DHT22;31823;47.032;8.310;2023-07-30T12:05:37;25.70;99.10
46085;DHT22;31823;47.032;8.310;2023-07-30T12:08:04;25.80;97.60
46085;DHT22;31823;47.032;8.310;2023-07-30T12:10:46;26.30;98.50
46085;DHT22;31823;47.032;8.310;2023-07-30T12:13:18;26.00;96.80
46085;DHT22;31823;47.032;8.310;2023-07-30T12:15:54;26.20;96.40
46085;DHT22;31823;47.032;8.310;2023-07-30T12:18:21;26.00;96.80
46085;DHT22;31823;47.032;8.310;2023-07-30T12:20:47;25.70;96.70
46085;DHT22;31823;47.032;8.310;2023-07-30T12:23:13;26.40;96.70
46085;DHT22;31823;47.032;8.310;2023-07-30T12:25:39;26.30;96.10
46085;DHT22;31823;47.032;8.310;2023-07-30T12:28:05;26.20;95.90
46085;DHT22;31823;47.032;8.310;2023-07-30T12:30:30;26.60;96.10
46085;DHT22;31823;47.032;8.310;2023-07-30T12:32:56;26.30;95.30
46085;DHT22;31823;47.032;8.310;2023-07-30T12:35:23;26.00;96.60
46085;DHT22;31823;47.032;8.310;2023-07-30T12:37:48;26.30;95.40
46085;DHT22;31823;47.032;8.310;2023-07-30T12:40:14;26.70;98.30
46085;DHT22;31823;47.032;8.310;2023-07-30T12:42:40;26.90;95.00
46085;DHT22;31823;47.032;8.310;2023-07-30T12:45:06;26.60;94.70
46085;DHT22;31823;47.032;8.310;2023-07-30T12:47:32;25.90;94.90
46085;DHT22;31823;47.032;8.310;2023-07-30T12:50:00;26.10;96.80
46085;DHT22;31823;47.032;8.310;2023-07-30T12:52:26;26.00;94.20
46085;DHT22;31823;47.032;8.310;2023-07-30T12:54:52;26.30;94.90
46085;DHT22;31823;47.032;8.310;2023-07-30T12:57:18;26.10;94.70
46085;DHT22;31823;47.032;8.310;2023-07-30T12:59:43;26.10;94.50
46085;DHT22;31823;47.032;8.310;2023-07-30T13:02:09;26.40;96.30
46085;DHT22;31823;47.032;8.310;2023-07-30T13:04:34;26.40;95.40
46085;DHT22;31823;47.032;8.310;2023-07-30T13:07:00;26.00;95.10
46085;DHT22;31823;47.032;8.310;2023-07-30T13:09:25;26.20;94.30
46085;DHT22;31823;47.032;8.310;2023-07-30T13:11:51;26.60;94.50
46085;DHT22;31823;47.032;8.310;2023-07-30T13:14:16;26.60;94.30
46085;DHT22;31823;47.032;8.310;2023-07-30T13:16:42;26.60;93.80
46085;DHT22;31823;47.032;8.310;2023-07-30T13:19:07;26.70;94.50
46085;DHT22;31823;47.032;8.310;2023-07-30T13:21:33;26.70;96.60
46085;DHT22;31823;47.032;8.310;2023-07-30T13:23:58;27.20;95.30
46085;DHT22;31823;47.032;8.310;2023-07-30T13:26:24;27.30;95.20
46085;DHT22;31823;47.032;8.310;2023-07-30T13:28:49;27.30;95.80
46085;DHT22;31823;47.032;8.310;2023-07-30T13:31:15;27.60;96.50
46085;DHT22;31823;47.032;8.310;2023-07-30T13:33:40;27.10;95.70
46085;DHT22;31823;47.032;8.310;2023-07-30T13:36:06;27.50;96.70
46085;DHT22;31823;47.032;8.310;2023-07-30T13:38:32;28.20;96.20
46085;DHT22;31823;47.032;8.310;2023-07-30T13:40:57;27.80;96.10
46085;DHT22;31823;47.032;8.310;2023-07-30T13:43:23;27.20;97.10
46085;DHT22;31823;47.032;8.310;2023-07-30T13:45:48;26.60;96.60
46085;DHT22;31823;47.032;8.310;2023-07-30T13:48:16;26.50;94.80
46085;DHT22;31823;47.032;8.310;2023-07-30T13:50:42;25.60;95.50
46085;DHT22;31823;47.032;8.310;2023-07-30T13:53:07;26.60;95.90
46085;DHT22;31823;47.032;8.310;2023-07-30T13:55:33;27.40;96.90
46085;DHT22;31823;47.032;8.310;2023-07-30T13:57:58;27.40;96.30
46085;DHT22;31823;47.032;8.310;2023-07-30T14:00:24;27.70;96.70
46085;DHT22;31823;47.032;8.310;2023-07-30T14:02:49;27.50;95.00
46085;DHT22;31823;47.032;8.310;2023-07-30T14:05:16;27.70;96.10
46085;DHT22;31823;47.032;8.310;2023-07-30T14:07:42;27.50;93.80
46085;DHT22;31823;47.032;8.310;2023-07-30T14:10:08;26.90;95.40
46085;DHT22;31823;47.032;8.310;2023-07-30T14:12:34;25.80;95.60
46085;DHT22;31823;47.032;8.310;2023-07-30T14:15:00;26.20;96.00
46085;DHT22;31823;47.032;8.310;2023-07-30T14:17:25;26.80;95.60
46085;DHT22;31823;47.032;8.310;2023-07-30T14:19:51;27.30;95.30
46085;DHT22;31823;47.032;8.310;2023-07-30T14:22:16;26.20;96.20
46085;DHT22;31823;47.032;8.310;2023-07-30T14:24:42;25.90;96.20
46085;DHT22;31823;47.032;8.310;2023-07-30T14:27:10;25.70;96.20
46085;DHT22;31823;47.032;8.310;2023-07-30T14:29:35;25.60;96.00
46085;DHT22;31823;47.032;8.310;2023-07-30T14:32:01;25.80;96.40
46085;DHT22;31823;47.032;8.310;2023-07-30T14:34:26;25.80;96.10
46085;DHT22;31823;47.032;8.310;2023-07-30T14:36:52;25.40;96.00
46085;DHT22;31823;47.032;8.310;2023-07-30T14:39:17;25.30;94.90
46085;DHT22;31823;47.032;8.310;2023-07-30T14:41:43;25.20;95.20
46085;DHT22;31823;47.032;8.310;2023-07-30T14:44:08;25.40;94.30
46085;DHT22;31823;47.032;8.310;2023-07-30T14:46:34;25.60;96.40
46085;DHT22;31823;47.032;8.310;2023-07-30T14:48:59;25.90;95.00
46085;DHT22;31823;47.032;8.310;2023-07-30T14:51:25;26.20;94.00
46085;DHT22;31823;47.032;8.310;2023-07-30T14:53:51;26.00;95.40
46085;DHT22;31823;47.032;8.310;2023-07-30T14:56:16;26.30;94.50
46085;DHT22;31823;47.032;8.310;2023-07-30T14:58:42;26.20;93.70
46085;DHT22;31823;47.032;8.310;2023-07-30T15:01:07;26.20;95.30
46085;DHT22;31823;47.032;8.310;2023-07-30T15:03:33;25.80;94.60
46085;DHT22;31823;47.032;8.310;2023-07-30T15:05:59;25.90;93.60
46085;DHT22;31823;47.032;8.310;2023-07-30T15:08:24;25.80;92.60
46085;DHT22;31823;47.032;8.310;2023-07-30T15:10:50;26.00;91.90
46085;DHT22;31823;47.032;8.310;2023-07-30T15:13:15;25.70;93.60
46085;DHT22;31823;47.032;8.310;2023-07-30T15:15:41;25.80;92.80
46085;DHT22;31823;47.032;8.310;2023-07-30T15:18:06;25.60;92.40
46085;DHT22;31823;47.032;8.310;2023-07-30T15:20:33;25.20;92.40
46085;DHT22;31823;47.032;8.310;2023-07-30T15:22:59;25.20;95.30
46085;DHT22;31823;47.032;8.310;2023-07-30T15:25:25;25.80;91.50
46085;DHT22;31823;47.032;8.310;2023-07-30T15:27:51;26.20;92.10
46085;DHT22;31823;47.032;8.310;2023-07-30T15:30:16;26.40;94.30